Friday, July 01, 2016
00:49 UTC
  |  Log In   |  Register Free
Airport Search:

Boulder Municipal Airport
(KBDU)

Boulder Municipal Airport Diagram
No Airport Diagram Available

FAA data valid effective May 26 2016 - Jul 21 2016 (unless otherwise noted).

 
 
 
 
 
 
 
 
 
 
 
 
 
 
Summary: Boulder Municipal (BDU)

Weather Summary


METAR for KBDU is not available. Closest METAR is for KLMO
KBDU  (most recent observation was updatred at 10:03 UTC)
010036Z AUTO 06006KT 10SM SCT038 BKN045 OVC055 21/11 A3022 RMK AO2

KLMO  (8.0 nm SW)   (most recent observation was updated at 10:03 UTC)
010033Z AUTO 07009KT 10SM SCT050 BKN110 23/13 A3023 RMK AO2 T02280134

KEIK  (8.4 nm NW)   (most recent observation was updated at 10:03 UTC)
010034Z AUTO 06012G16KT 10SM SCT055 OVC110 21/12 A3022 RMK AO2 T02120123

TAF for KBDU is not available.
KBJC  (9.3 nm NW)   (most recent observation was updatred at 30:23 UTC)
302337Z 0100/0124 02010KT P6SM VCTS BKN070CB OVC100 TEMPO 0101/0105 VRB15G25KT 5SM TSRA BKN040CB FM010500 12010KT P6SM VCSH SCT040 OVC070 FM011800 12007KT P6SM VCTS SCT040CB OVC070 PROB30 0120/0124 VRB15G25KT -TSRA BKN040CB


KDEN  (27.6 nm NW)   (most recent observation was updatred at 30:23 UTC)
302337Z 0100/0206 03008KT P6SM VCTS BKN070CB OVC100 TEMPO 0103/0107 VRB15G25KT 5SM TSRA BKN050CB FM010700 13009KT P6SM VCSH SCT040 OVC070 FM011800 14009KT P6SM SCT040 OVC070 PROB30 0120/0124 VRB15G25KT -TSRA BKN040CB FM020000 03005KT P6SM VCTS BKN070CB


KBKF  (29.8 nm NW)   (most recent observation was updatred at 30:23 UTC)
AMD 302320Z 3023/0123 03010G15KT 9000 -SHRA VCTS BKN100CB OVC200 QNH3016INS TEMPO 3023/0102 VRB15G25KT 6000 -TSRAGS OVC070CB BECMG 0102/0103 14009KT 9000 -SHRA BKN020 OVC070 QNH3022INS BECMG 0104/0105 14009KT 9000 -SHRA VCTS BKN070CB QNH3020INS TEMPO 0106/0110 VRB15G25KT 8000 -TSRA BECMG 0110/0111 22009KT 9999 NSW SCT020 OVC100 QNH3018INS TX27/3023Z TN14/0113Z
GlobalAir.com is loading additional information.
 Current Weather at BDU
70.0 F° (21.0 C°)
Overcast
West winds at 5.8 mph
Pressure:
30.22 in
Humidity:
50%
Wind:
West at 5.8 MPH (5 KT)
Dew Point:
50.0 F° (10.0 C°)
Visibility:
10.00 mi
BDU NOAA Radar

Runway Summary

ID Dimensions Surface Instrument Approaches
08/26 75 ft x 4100 ft Asphalt, Good Condition N/A
08G/26G 20 ft x 4100 ft Asphalt or Turf, Fair Condition N/A

Communications Summary


CTAF122.725
UNICOM122.725
ATISN/A
WX AWOS-3
CLEARANCE DELIVERYN/A

Terminal Procedures Summary


No terminal procedures available for BDU





Closest Alternate Airports with Instrument Procedures

KLMO - Vance Brand - 9.2 nm NE from BDU

KEIK - Erie Municipal - 9.6 nm SE from BDU

KBJC - Rocky Mountain Metropolitan - 10.7 nm SE from BDU

KFNL - Fort Collins-Loveland Municipal - 30.7 nm NE from BDU

KDEN - Denver International - 31.8 nm SE from BDU

KAPA - Centennial - 38.1 nm SE from BDU

KFTG - Front Range - 40.3 nm SE from BDU

KGXY - Greeley-Weld County - 41.7 nm NE from BDU

K20V - Mc Elroy Airfield - 60.5 nm NW from BDU

KCYS - Cheyenne Regional/Jerry Olson Field - 80.2 nm NE from BDU

Find All Airport Services Find A Hotel Find A Rental Car Find A Golf Course Find A Restaurant $100 Hamburger



FBO's on the Field
FBO Company Facility Photos Services Transportation Aviation Fuel Prices: Prices include tax
Catering Weather Repair Courtesy Rental Type 100LL JetA JetA+ MOGAS 8087
 
Journeys Aviation

Currently rated 4.8 by 2 people
FS:Phillips 66
Last Updated: May-19
Login to update fuel prices
SS:
Contact Journeys AviationMore FBO Information
 
Add another FBO Facility Photos Catering Weather Repair Courtesy Rental Type 100LL JetA JetA+ MOGAS 8087
Services Transportation Aviation Fuel Prices: Prices include tax


model-print
model-print
model-print
model-print